createdAt,value
2022-11-01T00:00:52.306Z,21.83
2022-11-01T00:03:25.249Z,27.65
2022-11-01T00:06:24.369Z,22.45
2022-11-01T00:08:59.427Z,20.70
2022-11-01T00:11:31.142Z,22.48
2022-11-01T00:17:17.245Z,21.80
2022-11-01T00:20:14.197Z,21.52
2022-11-01T00:22:43.026Z,24.00
2022-11-01T00:25:10.768Z,24.95
2022-11-01T00:27:39.549Z,25.63
2022-11-01T00:30:27.801Z,24.88
2022-11-01T00:32:57.967Z,25.77
2022-11-01T00:35:27.667Z,22.83
2022-11-01T00:37:57.609Z,24.23
2022-11-01T00:40:29.700Z,22.15
2022-11-01T00:42:57.414Z,27.40
2022-11-01T00:45:34.569Z,28.88
2022-11-01T00:48:08.714Z,27.40
2022-11-01T00:50:49.609Z,24.60
2022-11-01T00:53:35.886Z,20.50
2022-11-01T00:56:11.289Z,22.48
2022-11-01T00:58:51.279Z,22.90
2022-11-01T01:01:38.927Z,22.95
2022-11-01T01:04:08.061Z,24.27
2022-11-01T01:06:37.958Z,26.55
2022-11-01T01:09:12.728Z,24.95
2022-11-01T01:11:40.621Z,21.15
2022-11-01T01:14:09.220Z,21.65
2022-11-01T01:16:56.317Z,28.50
2022-11-01T01:19:27.368Z,22.17
2022-11-01T01:21:59.220Z,25.27
2022-11-01T01:24:33.908Z,20.88
2022-11-01T01:27:04.964Z,23.42
2022-11-01T01:29:38.879Z,24.10
2022-11-01T01:32:10.622Z,25.17
2022-11-01T01:34:52.146Z,24.83
2022-11-01T01:39:54.837Z,23.65
2022-11-01T01:43:06.009Z,21.02
2022-11-01T01:45:59.890Z,21.92
2022-11-01T01:48:31.041Z,24.08
2022-11-01T01:51:03.788Z,27.25
2022-11-01T01:53:34.422Z,24.17
2022-11-01T01:56:29.080Z,24.17
2022-11-01T01:59:29.896Z,25.08
2022-11-01T02:02:00.473Z,23.40
2022-11-01T02:05:06.612Z,22.13
2022-11-01T02:07:41.177Z,25.38
2022-11-01T02:10:18.211Z,21.20
2022-11-01T02:13:00.312Z,28.02
2022-11-01T02:15:47.954Z,35.03
2022-11-01T02:18:16.009Z,23.17
2022-11-01T02:21:01.666Z,26.58
2022-11-01T02:23:34.304Z,27.95
2022-11-01T02:26:02.580Z,27.63
2022-11-01T02:28:43.745Z,24.27
2022-11-01T02:31:47.688Z,23.63
2022-11-01T02:34:32.205Z,25.92
2022-11-01T02:40:18.130Z,22.42
2022-11-01T02:42:55.428Z,24.10
2022-11-01T02:45:43.332Z,27.85
2022-11-01T02:48:25.141Z,68.38
2022-11-01T02:51:01.967Z,27.13
2022-11-01T02:53:31.884Z,36.10
2022-11-01T02:56:34.780Z,27.88
2022-11-01T02:59:02.782Z,27.02
2022-11-01T03:01:51.052Z,49.53
2022-11-01T03:04:28.929Z,28.88
2022-11-01T03:07:16.414Z,34.17
2022-11-01T03:09:47.204Z,28.73
2022-11-01T03:12:21.709Z,24.70
2022-11-01T03:15:24.897Z,27.38
2022-11-01T03:18:13.671Z,28.13
2022-11-01T03:20:49.022Z,29.67
2022-11-01T03:23:37.159Z,26.25
2022-11-01T03:26:10.246Z,31.33
2022-11-01T03:28:40.392Z,46.45
2022-11-01T03:31:30.616Z,33.75
2022-11-01T03:34:34.576Z,46.67
2022-11-01T03:37:08.097Z,31.27
2022-11-01T03:40:02.957Z,39.33
2022-11-01T03:42:40.698Z,26.33
2022-11-01T03:45:25.854Z,32.00
2022-11-01T03:48:06.873Z,28.10
2022-11-01T03:50:35.261Z,28.13
2022-11-01T03:53:09.376Z,24.98
2022-11-01T03:55:43.125Z,30.27
2022-11-01T03:58:17.523Z,20.20
2022-11-01T04:04:03.345Z,23.25
2022-11-01T04:06:58.060Z,24.23
2022-11-01T04:09:35.633Z,23.20
2022-11-01T04:12:18.756Z,17.75
2022-11-01T04:15:08.239Z,22.75
2022-11-01T04:17:54.966Z,22.95
2022-11-01T04:20:34.883Z,20.83
2022-11-01T04:23:09.174Z,22.70
2022-11-01T04:25:36.850Z,16.40
2022-11-01T04:28:04.750Z,16.08
2022-11-01T04:30:35.665Z,19.98
2022-11-01T04:33:06.354Z,35.35
2022-11-01T04:35:41.462Z,24.13
2022-11-01T04:38:18.747Z,23.27
2022-11-01T04:40:57.957Z,24.75
2022-11-01T04:43:39.020Z,19.17
2022-11-01T04:46:16.295Z,22.38
2022-11-01T04:48:50.640Z,19.00
2022-11-01T04:54:36.671Z,23.63
2022-11-01T04:57:26.328Z,21.98
2022-11-01T04:59:54.839Z,24.63
2022-11-01T05:02:38.445Z,25.52
2022-11-01T05:05:12.593Z,20.90
2022-11-01T05:07:40.607Z,27.30
2022-11-01T05:10:19.169Z,24.75
2022-11-01T05:12:56.993Z,17.55
2022-11-01T05:15:26.032Z,24.42
2022-11-01T05:18:09.241Z,25.63
2022-11-01T05:20:46.635Z,16.90
2022-11-01T05:23:16.572Z,18.35
2022-11-01T05:25:44.246Z,17.35
2022-11-01T05:28:15.739Z,15.63
2022-11-01T05:33:42.578Z,14.30
2022-11-01T05:36:16.567Z,12.43
2022-11-01T05:38:57.954Z,13.65
2022-11-01T05:41:45.958Z,13.45
2022-11-01T05:44:15.982Z,12.32
2022-11-01T05:46:56.094Z,14.73
2022-11-01T05:49:26.846Z,15.27
2022-11-01T05:52:01.207Z,11.70
2022-11-01T05:55:12.041Z,14.48
2022-11-01T05:57:44.921Z,10.85
2022-11-01T06:00:13.440Z,10.80
2022-11-01T06:02:59.617Z,16.63
2022-11-01T06:05:30.306Z,13.77
2022-11-01T06:08:01.414Z,14.40
2022-11-01T06:10:32.038Z,10.10
2022-11-01T06:13:35.747Z,13.23
2022-11-01T06:16:17.880Z,14.68
2022-11-01T06:18:48.993Z,12.43
2022-11-01T06:21:30.213Z,13.77
2022-11-01T06:24:05.469Z,13.35
2022-11-01T06:26:52.246Z,10.13
2022-11-01T06:29:26.302Z,12.82
2022-11-01T06:32:04.805Z,11.18
2022-11-01T06:34:42.237Z,12.38
2022-11-01T06:37:17.052Z,13.07
2022-11-01T06:39:55.270Z,14.95
2022-11-01T06:42:30.508Z,16.85
2022-11-01T06:45:17.249Z,12.75
2022-11-01T06:47:48.507Z,17.50
2022-11-01T06:50:16.541Z,11.77
2022-11-01T06:53:00.281Z,10.80
2022-11-01T06:55:44.692Z,12.82
2022-11-01T06:58:13.568Z,11.57
2022-11-01T07:00:41.470Z,16.40
2022-11-01T07:03:18.755Z,9.93
2022-11-01T07:05:50.684Z,11.52
2022-11-01T07:08:18.519Z,15.05
2022-11-01T07:10:51.514Z,11.07
2022-11-01T07:13:20.404Z,9.93
2022-11-01T07:15:48.283Z,9.50
2022-11-01T07:18:17.274Z,8.15
2022-11-01T07:23:37.245Z,11.90
2022-11-01T07:26:05.210Z,8.18
2022-11-01T07:29:04.453Z,7.88
2022-11-01T07:32:00.895Z,7.60
2022-11-01T07:34:36.220Z,6.20
2022-11-01T07:37:05.702Z,8.18
2022-11-01T07:39:46.795Z,5.22
2022-11-01T07:42:20.942Z,7.18
2022-11-01T07:44:50.492Z,7.20
2022-11-01T07:47:20.941Z,6.68
2022-11-01T07:49:56.935Z,11.73
2022-11-01T07:52:36.214Z,10.93
2022-11-01T07:55:10.432Z,7.90
2022-11-01T07:58:16.438Z,11.13
2022-11-01T08:00:50.647Z,11.20
2022-11-01T08:06:37.197Z,10.85
2022-11-01T08:09:12.064Z,9.80
2022-11-01T08:11:39.828Z,14.30
2022-11-01T08:14:13.811Z,13.55
2022-11-01T08:17:03.461Z,14.00
2022-11-01T08:19:33.413Z,9.68
2022-11-01T08:22:01.532Z,12.45
2022-11-01T08:24:30.333Z,9.70
2022-11-01T08:27:25.043Z,9.32
2022-11-01T08:30:08.696Z,10.05
2022-11-01T08:33:04.011Z,11.10
2022-11-01T08:35:33.934Z,11.45
2022-11-01T08:38:07.087Z,10.30
2022-11-01T08:40:36.847Z,9.50
2022-11-01T08:43:15.603Z,12.13
2022-11-01T08:45:49.333Z,14.02
2022-11-01T08:48:19.315Z,11.30
2022-11-01T08:50:49.172Z,11.63
2022-11-01T08:53:26.412Z,13.00
2022-11-01T08:56:10.486Z,15.05
2022-11-01T08:59:00.160Z,14.05
2022-11-01T09:01:41.468Z,16.55
2022-11-01T09:06:40.595Z,17.83
2022-11-01T09:09:23.927Z,20.77
2022-11-01T09:12:24.805Z,25.70
2022-11-01T09:15:10.670Z,29.38
2022-11-01T09:17:47.938Z,31.45
2022-11-01T09:20:29.454Z,27.55
2022-11-01T09:26:31.312Z,26.05
2022-11-01T09:28:59.805Z,25.60
2022-11-01T09:31:29.895Z,29.30
2022-11-01T09:33:59.975Z,33.05
2022-11-01T09:36:36.014Z,37.45
2022-11-01T09:39:05.154Z,39.88
2022-11-01T09:41:35.295Z,35.45
2022-11-01T09:44:24.043Z,29.23
2022-11-01T09:47:14.633Z,29.63
2022-11-01T09:50:02.724Z,24.80
2022-11-01T09:52:39.170Z,26.85
2022-11-01T09:55:17.295Z,26.13
2022-11-01T09:58:05.391Z,29.17
2022-11-01T10:00:54.634Z,29.20
2022-11-01T10:03:41.973Z,25.85
2022-11-01T10:06:37.184Z,21.80
2022-11-01T10:09:42.440Z,17.75
2022-11-01T10:12:19.619Z,12.40
2022-11-01T10:15:11.188Z,15.02
2022-11-01T10:35:33.758Z,19.20
2022-11-01T10:38:22.846Z,22.52
2022-11-01T10:41:00.903Z,22.08
2022-11-01T10:44:01.138Z,19.23
2022-11-01T10:46:47.113Z,21.92
2022-11-01T10:50:05.289Z,23.10
2022-11-01T12:03:44.170Z,12.25
2022-11-01T12:54:20.083Z,21.27
2022-11-01T12:57:01.153Z,16.83
2022-11-01T12:59:38.862Z,32.20
2022-11-01T13:02:29.459Z,17.58
2022-11-01T13:05:01.269Z,18.40
2022-11-01T13:07:34.475Z,17.15
2022-11-01T13:10:09.264Z,18.90
2022-11-01T13:12:56.280Z,19.20
2022-11-01T13:15:43.196Z,15.82
2022-11-01T13:18:46.063Z,17.02
2022-11-01T13:21:35.610Z,18.45
2022-11-01T13:24:13.447Z,16.05
2022-11-01T13:27:01.269Z,13.32
2022-11-01T13:29:55.456Z,26.02
2022-11-01T13:32:25.423Z,24.67
2022-11-01T13:34:58.664Z,22.60
2022-11-01T13:37:44.516Z,18.73
2022-11-01T13:40:17.904Z,18.15
2022-11-01T13:46:07.506Z,17.38
2022-11-01T13:48:56.118Z,17.15
2022-11-01T13:51:35.437Z,14.97
2022-11-01T13:54:34.857Z,15.27
2022-11-01T14:03:54.252Z,17.10
2022-11-01T14:58:04.375Z,19.40
2022-11-01T15:07:14.432Z,25.52
2022-11-01T15:16:40.846Z,28.83
2022-11-01T15:29:21.447Z,27.10
2022-11-01T15:35:45.301Z,21.50
2022-11-01T15:48:02.492Z,16.15
2022-11-01T15:51:19.823Z,19.40
2022-11-01T16:04:04.024Z,13.55
2022-11-01T16:10:02.367Z,12.63
2022-11-01T16:12:46.125Z,14.98
2022-11-01T16:15:44.301Z,12.45
2022-11-01T16:18:25.267Z,15.75
2022-11-01T16:21:06.697Z,14.18
2022-11-01T16:23:50.161Z,14.27
2022-11-01T16:26:33.342Z,13.43
2022-11-01T16:29:01.559Z,12.45
2022-11-01T16:31:31.008Z,13.50
2022-11-01T16:34:31.120Z,12.95
2022-11-01T16:37:00.267Z,14.60
2022-11-01T16:39:30.142Z,17.95
2022-11-01T16:42:04.812Z,12.50
2022-11-01T16:44:33.172Z,14.15
2022-11-01T16:47:18.318Z,16.30
2022-11-01T16:49:52.153Z,15.43
2022-11-01T16:52:20.458Z,17.33
2022-11-01T17:57:38.355Z,19.33
2022-11-01T18:03:39.381Z,18.10
2022-11-01T18:06:17.466Z,20.95
2022-11-01T18:08:58.870Z,23.98
2022-11-01T18:11:57.948Z,27.63
2022-11-01T18:18:04.169Z,21.05
2022-11-01T18:20:44.276Z,20.27
2022-11-01T18:23:24.254Z,21.23
2022-11-01T18:26:19.324Z,18.88
2022-11-01T18:28:49.985Z,21.40
2022-11-01T18:31:51.075Z,19.60
2022-11-01T18:37:47.755Z,25.02
2022-11-01T18:40:48.913Z,26.52
2022-11-01T18:43:40.227Z,21.55
2022-11-01T18:52:38.312Z,25.80
2022-11-01T19:04:02.972Z,22.67
2022-11-01T19:44:42.226Z,26.05
2022-11-01T19:47:26.820Z,29.15
2022-11-01T19:50:31.244Z,31.52
2022-11-01T19:53:39.243Z,34.70
2022-11-01T19:56:15.962Z,24.13
2022-11-01T19:58:47.854Z,31.02
2022-11-01T20:01:21.378Z,26.95
2022-11-01T20:04:01.870Z,36.42
2022-11-01T20:06:37.734Z,30.88
2022-11-01T20:18:26.761Z,21.35
2022-11-01T20:21:09.466Z,23.38
2022-11-01T20:40:12.601Z,21.90
2022-11-01T20:43:15.302Z,17.42
2022-11-01T20:46:15.009Z,16.90
2022-11-01T20:49:17.803Z,20.15
2022-11-01T20:54:58.928Z,23.98
2022-11-01T20:57:43.455Z,26.77
2022-11-01T21:07:48.165Z,29.13
2022-11-01T21:16:46.067Z,26.00
2022-11-01T21:19:30.136Z,35.03
2022-11-01T21:22:13.667Z,32.42
2022-11-01T21:34:48.052Z,33.80
2022-11-01T21:52:44.049Z,34.45
2022-11-01T21:55:14.120Z,35.72
2022-11-01T21:57:43.638Z,35.13
2022-11-01T22:00:12.332Z,35.50
2022-11-01T22:03:02.947Z,35.33
2022-11-01T22:05:52.439Z,36.73
2022-11-01T22:08:29.057Z,41.38
2022-11-01T22:11:10.494Z,37.97
2022-11-01T22:14:32.093Z,36.40
2022-11-01T22:17:02.474Z,34.22
2022-11-01T22:19:31.744Z,32.17
2022-11-01T22:22:02.544Z,33.53
2022-11-01T22:24:36.165Z,32.80
2022-11-01T22:31:01.436Z,26.80
2022-11-01T22:40:18.766Z,24.35
2022-11-01T22:42:58.035Z,20.77
2022-11-01T23:04:21.576Z,23.27
2022-11-01T23:07:09.628Z,23.02
2022-11-01T23:09:38.187Z,26.67
2022-11-01T23:12:41.515Z,28.55
2022-11-01T23:15:24.154Z,30.20
2022-11-01T23:17:56.421Z,29.75
2022-11-01T23:50:18.024Z,22.33
2022-11-01T23:56:10.784Z,19.50
2022-11-01T23:58:40.210Z,22.23
